Time;durP1;ratioP1;P1;durP2;ratioP2;P2;SDS_P1;SDS_P2;PMS_P1;PMS_P2;Temp;Humidity;BMP_temperature;BMP_pressure;BME280_temperature;BME280_humidity;BME280_pressure;Samples;Min_cycle;Max_cycle;Signal;HPM_P1;HPM_P2
2021/03/13 00:02:00;;;;;;;1.67;0.60;;;;;;;6.87;43.44;94761.66;5028990;28;20044;-76
2021/03/13 00:04:25;;;;;;;1.92;0.65;;;;;;;7.06;43.39;94751.81;5028892;28;20074;-77
2021/03/13 00:06:50;;;;;;;1.85;0.57;;;;;;;6.85;43.61;94754.00;5030748;28;20040;-76
2021/03/13 00:09:16;;;;;;;2.88;0.70;;;;;;;7.04;43.41;94738.09;5029065;28;20040;-76
2021/03/13 00:11:41;;;;;;;1.50;0.73;;;;;;;7.04;43.51;94756.63;5028865;28;20053;-75
2021/03/13 00:14:06;;;;;;;2.50;0.80;;;;;;;7.11;43.44;94767.59;5028903;28;20034;-75
2021/03/13 00:16:32;;;;;;;1.27;0.45;;;;;;;7.26;42.80;94763.91;5028901;28;20104;-75
2021/03/13 00:18:57;;;;;;;2.10;0.60;;;;;;;7.16;43.31;94758.78;5030702;28;20049;-75
2021/03/13 00:21:22;;;;;;;1.70;0.70;;;;;;;7.53;42.41;94758.66;5028555;28;20040;-75
2021/03/13 00:23:48;;;;;;;1.95;0.45;;;;;;;7.55;42.56;94763.66;5027485;28;20136;-75
2021/03/13 00:26:13;;;;;;;1.40;0.60;;;;;;;7.46;42.53;94770.69;5028762;28;20033;-75
2021/03/13 00:28:38;;;;;;;1.05;0.43;;;;;;;7.62;42.44;94757.97;5028420;28;20032;-75
2021/03/13 00:31:04;;;;;;;0.40;0.40;;;;;;;7.23;43.20;94751.28;5030857;28;20184;-75
2021/03/13 00:33:35;;;;;;;3.20;0.90;;;;;;;7.31;43.10;94782.34;5028414;28;20041;-74
2021/03/13 00:36:00;;;;;;;2.53;0.45;;;;;;;7.42;42.68;94775.81;5028746;28;20152;-75
2021/03/13 00:38:25;;;;;;;2.08;0.63;;;;;;;7.70;42.37;94783.75;5028243;28;20525;-75
2021/03/13 00:40:52;;;;;;;3.58;0.70;;;;;;;7.47;42.63;94786.31;5028492;28;20115;-76
2021/03/13 00:43:18;;;;;;;1.38;0.43;;;;;;;7.51;42.91;94773.25;5030128;28;20445;-77
2021/03/13 00:45:44;;;;;;;2.53;0.73;;;;;;;7.74;42.25;94780.22;5028736;28;20065;-76
2021/03/13 00:48:10;;;;;;;0.70;0.57;;;;;;;7.45;42.90;94763.84;5043545;28;20034;-75
2021/03/13 00:50:38;;;;;;;2.05;0.93;;;;;;;7.64;43.08;94783.06;5029160;28;20036;-76
2021/03/13 00:53:03;;;;;;;1.77;0.47;;;;;;;7.20;43.61;94763.22;5032166;28;20122;-76
2021/03/13 00:55:30;;;;;;;2.53;0.80;;;;;;;7.28;43.68;94791.66;5032581;28;20048;-75
2021/03/13 00:57:55;;;;;;;1.27;0.50;;;;;;;7.26;44.09;94788.50;5034096;28;20056;-75
2021/03/13 01:00:24;;;;;;;2.80;0.47;;;;;;;7.05;44.09;94763.47;5032351;28;20495;-77
2021/03/13 01:02:49;;;;;;;1.92;0.50;;;;;;;7.37;43.32;94767.97;5031963;28;20606;-77
2021/03/13 01:05:16;;;;;;;2.42;0.73;;;;;;;7.35;43.91;94762.16;5025307;28;20042;-77
2021/03/13 01:07:42;;;;;;;3.03;0.77;;;;;;;7.20;44.51;94754.50;5012428;28;20655;-76
2021/03/13 01:10:15;;;;;;;2.65;0.75;;;;;;;7.07;44.85;94756.06;5014478;28;20018;-75
2021/03/13 01:12:41;;;;;;;1.45;0.50;;;;;;;7.00;44.26;94756.41;5010798;28;20042;-75
2021/03/13 01:15:11;;;;;;;1.13;0.50;;;;;;;7.03;44.12;94739.19;5010934;28;20117;-76
2021/03/13 01:17:36;;;;;;;2.03;0.80;;;;;;;7.00;44.58;94727.31;5010867;28;20120;-75
2021/03/13 01:20:04;;;;;;;2.60;0.65;;;;;;;7.11;43.85;94751.72;5012099;28;20065;-75
2021/03/13 01:22:29;;;;;;;2.17;0.40;;;;;;;7.13;44.00;94741.66;5011595;28;20476;-74
2021/03/13 01:24:55;;;;;;;1.65;0.40;;;;;;;7.02;43.86;94746.34;5012655;28;20033;-75
2021/03/13 01:27:20;;;;;;;1.38;0.40;;;;;;;6.94;43.89;94733.78;5010464;28;20476;-77
2021/03/13 01:29:46;;;;;;;2.17;0.60;;;;;;;7.09;44.06;94745.94;5021934;28;20526;-74
2021/03/13 01:32:11;;;;;;;1.42;0.80;;;;;;;7.21;43.99;94756.06;5025025;28;20030;-73
2021/03/13 01:34:36;;;;;;;1.17;0.65;;;;;;;7.07;43.75;94745.47;5011668;28;20018;-74
2021/03/13 01:37:02;;;;;;;2.08;0.70;;;;;;;7.01;44.26;94762.47;5013569;28;20018;-74
2021/03/13 01:39:27;;;;;;;0.68;0.30;;;;;;;6.80;44.18;94754.09;5026873;28;20038;-73
2021/03/13 01:41:53;;;;;;;1.27;0.40;;;;;;;6.89;43.56;94741.00;5011730;28;20080;-75
2021/03/13 01:44:18;;;;;;;0.93;0.60;;;;;;;7.12;43.89;94755.97;5011686;28;20444;-75
2021/03/13 01:46:44;;;;;;;1.77;0.73;;;;;;;7.15;43.80;94760.66;5011435;28;20034;-76
2021/03/13 01:49:18;;;;;;;1.40;0.50;;;;;;;7.01;44.29;94746.59;5012299;28;20472;-75
2021/03/13 01:51:45;;;;;;;0.77;0.20;;;;;;;7.07;44.52;94756.06;5011266;28;20038;-76
2021/03/13 01:54:11;;;;;;;1.33;0.32;;;;;;;6.85;45.27;94759.28;5011476;28;20041;-74
2021/03/13 01:56:38;;;;;;;1.38;0.50;;;;;;;6.77;44.99;94752.03;5021521;28;20026;-75
2021/03/13 01:59:04;;;;;;;0.60;0.57;;;;;;;6.91;45.02;94733.56;5031164;28;20021;-73
2021/03/13 02:01:29;;;;;;;1.83;0.70;;;;;;;6.86;45.75;94717.78;5030591;28;20446;-76
2021/03/13 02:03:55;;;;;;;1.45;0.45;;;;;;;7.03;45.31;94731.25;5032794;28;20030;-75
2021/03/13 02:06:21;;;;;;;1.35;0.57;;;;;;;7.03;45.35;94733.91;5031338;28;20036;-73
2021/03/13 02:09:00;;;;;;;1.13;0.40;;;;;;;7.12;45.64;94736.66;5045910;28;20029;-74
2021/03/13 02:11:59;;;;;;;1.42;0.50;;;;;;;7.13;46.12;94732.94;5046225;28;20032;-74
2021/03/13 02:14:49;;;;;;;1.88;0.50;;;;;;;7.30;45.50;94728.63;5030948;28;20036;-73
2021/03/13 02:17:25;;;;;;;1.13;0.65;;;;;;;7.28;45.38;94704.34;5029457;28;20575;-73
2021/03/13 02:20:24;;;;;;;1.42;0.40;;;;;;;7.19;45.76;94705.31;5030983;28;20032;-75
2021/03/13 02:22:51;;;;;;;1.58;0.57;;;;;;;7.25;46.62;94710.22;5027429;28;20072;-76
2021/03/13 02:25:48;;;;;;;1.70;0.50;;;;;;;7.29;47.15;94721.78;5033068;28;20025;-74
2021/03/13 02:28:20;;;;;;;1.40;0.50;;;;;;;7.35;47.17;94708.47;5029875;28;20079;-73
2021/03/13 02:30:48;;;;;;;1.83;0.50;;;;;;;7.10;47.81;94709.72;5029516;28;20473;-73
2021/03/13 02:33:24;;;;;;;1.88;0.47;;;;;;;7.38;47.56;94715.81;5030479;28;20037;-73
2021/03/13 02:35:56;;;;;;;1.23;0.60;;;;;;;7.26;48.34;94727.66;5030680;28;20403;-75
2021/03/13 02:38:30;;;;;;;1.42;0.45;;;;;;;7.04;49.06;94714.31;5030339;28;20034;-74
2021/03/13 02:41:00;;;;;;;1.33;0.30;;;;;;;6.91;49.74;94712.41;5030344;28;20068;-73
2021/03/13 02:43:27;;;;;;;2.58;0.70;;;;;;;6.87;49.98;94719.38;5028576;28;20029;-74
2021/03/13 02:45:59;;;;;;;1.80;0.40;;;;;;;6.88;49.98;94716.44;5032192;28;20045;-76
2021/03/13 02:48:27;;;;;;;2.22;0.70;;;;;;;6.90;50.56;94710.84;5029753;28;20030;-74
2021/03/13 02:50:53;;;;;;;1.25;0.70;;;;;;;6.78;50.50;94706.81;5029975;28;20037;-74
2021/03/13 02:53:20;;;;;;;3.00;0.65;;;;;;;6.67;51.13;94709.91;5029843;28;20033;-74
2021/03/13 02:55:47;;;;;;;2.20;0.80;;;;;;;6.74;51.24;94711.09;5028398;28;20491;-74
2021/03/13 02:58:13;;;;;;;2.08;0.50;;;;;;;6.52;51.97;94710.94;5031673;28;20030;-74
2021/03/13 03:00:42;;;;;;;3.85;0.85;;;;;;;6.50;51.61;94700.66;5030009;28;20499;-73
2021/03/13 03:03:09;;;;;;;2.00;0.60;;;;;;;6.70;51.35;94694.25;5044766;28;20061;-72
2021/03/13 03:05:36;;;;;;;3.90;0.68;;;;;;;6.54;52.33;94700.84;5029861;28;20029;-73
2021/03/13 03:08:04;;;;;;;1.58;0.65;;;;;;;6.56;52.15;94700.59;5029476;28;20077;-73
2021/03/13 03:10:32;;;;;;;3.38;0.50;;;;;;;6.39;52.26;94695.81;5029456;28;20057;-73
2021/03/13 03:13:01;;;;;;;2.83;0.50;;;;;;;6.47;52.31;94676.66;5030786;28;20025;-73
2021/03/13 03:15:30;;;;;;;1.48;0.60;;;;;;;6.67;52.33;94692.19;5027986;28;20029;-74
2021/03/13 03:17:58;;;;;;;1.15;0.52;;;;;;;6.36;53.52;94691.91;5029429;28;20045;-74
2021/03/13 03:20:25;;;;;;;1.40;0.50;;;;;;;6.50;52.82;94673.47;5029484;28;20403;-73
2021/03/13 03:22:50;;;;;;;2.25;0.50;;;;;;;6.62;52.24;94691.50;5029226;28;20034;-75
2021/03/13 03:25:16;;;;;;;1.83;0.50;;;;;;;6.57;52.66;94676.50;5031404;28;20083;-74
2021/03/13 03:27:50;;;;;;;1.63;0.57;;;;;;;6.48;53.85;94680.88;5027222;28;20029;-73
2021/03/13 03:30:20;;;;;;;0.80;0.50;;;;;;;6.23;54.11;94669.63;5028062;28;20582;-74
2021/03/13 03:32:46;;;;;;;1.42;0.50;;;;;;;6.39;54.10;94677.31;5027694;28;20045;-74
2021/03/13 03:35:12;;;;;;;4.63;0.50;;;;;;;6.45;53.59;94695.47;5044596;28;20034;-73
2021/03/13 03:37:38;;;;;;;1.88;0.40;;;;;;;6.30;54.78;94692.28;5027625;28;20036;-73
2021/03/13 03:40:05;;;;;;;1.50;0.45;;;;;;;6.23;55.00;94687.34;5031597;28;20472;-72
2021/03/13 03:42:32;;;;;;;1.52;0.63;;;;;;;6.46;54.47;94698.88;5011879;28;20033;-73
2021/03/13 03:45:00;;;;;;;2.60;0.63;;;;;;;6.15;55.47;94683.50;5024998;28;20030;-74
2021/03/13 03:47:27;;;;;;;2.10;0.50;;;;;;;6.14;56.17;94710.97;5009581;28;20403;-73
2021/03/13 03:49:53;;;;;;;2.33;0.65;;;;;;;6.11;55.92;94716.03;5009448;28;20037;-71
2021/03/13 03:52:18;;;;;;;2.42;0.93;;;;;;;6.20;55.36;94694.00;5011519;28;20033;-74
2021/03/13 03:54:44;;;;;;;2.25;0.70;;;;;;;6.17;56.05;94702.47;5028557;28;20403;-74
2021/03/13 03:57:10;;;;;;;1.25;0.68;;;;;;;6.08;56.28;94698.91;5028893;28;20496;-76
2021/03/13 03:59:39;;;;;;;1.05;0.40;;;;;;;6.10;56.47;94709.97;5028929;28;20048;-72
2021/03/13 04:02:05;;;;;;;2.15;0.55;;;;;;;5.86;56.54;94690.75;5028696;28;20037;-73
2021/03/13 04:04:32;;;;;;;3.45;1.10;;;;;;;5.95;56.43;94710.97;5028809;28;20092;-74
2021/03/13 04:06:58;;;;;;;2.53;0.63;;;;;;;6.01;56.19;94719.59;5030601;28;20025;-74
2021/03/13 04:09:25;;;;;;;1.05;0.60;;;;;;;5.87;56.16;94689.66;5028775;28;20086;-74
2021/03/13 04:11:52;;;;;;;1.52;0.30;;;;;;;6.13;55.41;94684.84;5028479;28;20029;-74
2021/03/13 04:14:18;;;;;;;0.98;0.43;;;;;;;5.88;56.35;94680.66;5023880;28;20026;-74
2021/03/13 04:16:44;;;;;;;1.60;0.50;;;;;;;6.03;56.21;94695.56;5011874;28;20607;-74
2021/03/13 04:19:12;;;;;;;1.20;0.40;;;;;;;5.81;56.72;94680.25;5029405;28;20017;-73
2021/03/13 04:21:38;;;;;;;2.42;0.60;;;;;;;5.95;56.29;94692.50;5028391;28;20037;-73
2021/03/13 04:24:04;;;;;;;1.35;0.50;;;;;;;6.05;55.77;94673.09;5028622;28;20064;-73
2021/03/13 04:26:31;;;;;;;0.95;0.40;;;;;;;5.95;56.85;94675.88;5034837;28;20032;-73
2021/03/13 04:28:57;;;;;;;1.20;0.60;;;;;;;6.04;56.60;94687.38;5034902;28;20406;-74
2021/03/13 04:31:27;;;;;;;1.80;0.55;;;;;;;6.04;57.01;94683.91;5036898;28;20022;-73
2021/03/13 04:33:54;;;;;;;0.82;0.43;;;;;;;6.02;56.86;94680.78;5034336;28;20033;-74
2021/03/13 04:36:20;;;;;;;1.80;0.50;;;;;;;6.17;56.86;94677.91;5035206;28;20123;-74
2021/03/13 04:38:47;;;;;;;2.00;0.60;;;;;;;6.35;56.32;94668.44;5034646;28;20045;-74
2021/03/13 04:41:13;;;;;;;1.15;0.40;;;;;;;6.36;55.88;94667.34;5035066;28;20037;-73
2021/03/13 04:43:40;;;;;;;2.08;0.60;;;;;;;6.51;55.53;94664.47;5050317;28;20029;-74
2021/03/13 04:46:06;;;;;;;2.42;0.55;;;;;;;6.32;56.14;94658.41;5037068;28;20040;-73
2021/03/13 04:48:32;;;;;;;1.95;0.57;;;;;;;6.18;56.55;94667.06;5033711;28;20034;-74
2021/03/13 04:51:06;;;;;;;1.88;0.73;;;;;;;6.51;55.28;94669.75;5034987;28;20033;-74
2021/03/13 04:53:31;;;;;;;2.40;0.40;;;;;;;6.70;54.55;94659.88;5035049;28;20037;-74
2021/03/13 04:55:57;;;;;;;0.40;0.30;;;;;;;6.81;54.65;94659.72;5035029;28;20414;-73
2021/03/13 04:58:22;;;;;;;5.13;0.70;;;;;;;6.92;53.70;94664.53;5034699;28;20017;-69
2021/03/13 05:00:48;;;;;;;2.83;0.40;;;;;;;7.02;52.60;94653.00;5052045;28;20079;-75
2021/03/13 05:03:15;;;;;;;1.08;0.68;;;;;;;7.24;52.27;94644.38;5034450;28;20044;-74
2021/03/13 05:05:40;;;;;;;1.05;0.30;;;;;;;6.97;53.38;94659.16;5034909;28;20029;-73
2021/03/13 05:08:06;;;;;;;2.42;0.60;;;;;;;6.80;52.19;94645.72;5034876;28;20034;-73
2021/03/13 05:10:31;;;;;;;2.47;0.40;;;;;;;6.84;52.12;94614.97;5035298;28;20072;-74
2021/03/13 05:12:57;;;;;;;1.08;0.47;;;;;;;7.20;51.59;94643.41;5035510;28;20021;-73
2021/03/13 05:15:23;;;;;;;1.15;0.35;;;;;;;7.29;51.61;94621.25;5035073;28;20045;-75
2021/03/13 05:17:49;;;;;;;3.58;0.60;;;;;;;7.10;51.55;94633.00;5049990;28;20033;-75
2021/03/13 05:20:15;;;;;;;0.88;0.50;;;;;;;6.64;52.38;94642.56;5034767;28;20102;-74
2021/03/13 05:22:40;;;;;;;1.35;0.73;;;;;;;6.84;51.82;94638.00;5049791;28;20450;-74
2021/03/13 05:25:07;;;;;;;1.50;0.60;;;;;;;6.77;51.96;94641.03;5036621;28;20025;-74
2021/03/13 05:27:33;;;;;;;1.52;0.40;;;;;;;6.70;51.97;94622.09;5034310;28;20124;-74
2021/03/13 05:29:59;;;;;;;2.83;0.75;;;;;;;6.65;51.60;94628.25;5034695;28;20441;-74
2021/03/13 05:32:26;;;;;;;0.40;0.30;;;;;;;6.82;51.26;94627.72;5034266;28;20102;-73
2021/03/13 05:34:53;;;;;;;2.60;0.60;;;;;;;6.83;51.93;94631.91;5033286;28;20029;-73
2021/03/13 05:37:19;;;;;;;1.35;0.38;;;;;;;7.00;51.23;94618.13;5033663;28;20018;-74
2021/03/13 05:39:44;;;;;;;1.70;0.30;;;;;;;6.59;52.09;94621.50;5031630;28;20041;-72
2021/03/13 05:42:10;;;;;;;1.02;0.40;;;;;;;6.71;51.58;94627.13;5031278;28;20079;-72
2021/03/13 05:44:37;;;;;;;1.20;0.52;;;;;;;6.69;51.88;94613.38;5029999;28;20038;-74
2021/03/13 05:47:03;;;;;;;2.38;0.40;;;;;;;6.96;50.68;94612.66;5029670;28;20034;-73
2021/03/13 05:49:35;;;;;;;2.17;0.40;;;;;;;6.97;50.48;94602.84;5031381;28;20162;-75
2021/03/13 05:52:00;;;;;;;1.60;0.38;;;;;;;6.95;51.01;94612.94;5048250;28;20512;-74
2021/03/13 05:54:26;;;;;;;1.35;0.32;;;;;;;7.12;50.51;94615.00;5031265;28;20037;-73
2021/03/13 05:56:52;;;;;;;2.13;0.50;;;;;;;7.23;50.10;94613.72;5029699;28;20116;-73
2021/03/13 05:59:18;;;;;;;0.65;0.20;;;;;;;7.00;50.85;94589.81;5031159;28;20087;-75
2021/03/13 06:01:44;;;;;;;0.52;0.20;;;;;;;7.26;50.05;94591.94;5030928;28;20392;-74
2021/03/13 06:04:09;;;;;;;0.82;0.35;;;;;;;7.03;50.35;94591.09;5033317;28;20029;-74
2021/03/13 06:06:38;;;;;;;1.35;0.30;;;;;;;7.26;49.79;94605.97;5031315;28;20116;-73
2021/03/13 06:09:04;;;;;;;2.05;0.30;;;;;;;7.13;50.19;94588.25;5029662;28;20033;-73
2021/03/13 06:11:30;;;;;;;0.85;0.68;;;;;;;7.09;49.89;94589.13;5029501;28;20049;-73
2021/03/13 06:13:55;;;;;;;0.75;0.40;;;;;;;7.16;49.99;94589.50;5030885;28;20037;-75
2021/03/13 06:16:22;;;;;;;0.32;0.22;;;;;;;7.06;50.12;94593.13;5032908;28;20025;-73
2021/03/13 06:18:47;;;;;;;1.17;0.35;;;;;;;7.48;48.70;94596.56;5030955;28;20038;-74
2021/03/13 06:21:35;;;;;;;0.70;0.40;;;;;;;7.22;49.94;94589.13;5029244;28;20391;-74
2021/03/13 06:24:08;;;;;;;1.35;0.30;;;;;;;7.54;48.81;94585.53;5031027;28;20033;-74
2021/03/13 06:27:08;;;;;;;1.75;0.30;;;;;;;7.39;48.57;94561.28;5031047;28;20038;-73
2021/03/13 06:29:34;;;;;;;0.80;0.50;;;;;;;7.86;48.13;94575.06;4969560;28;20113;-73
2021/03/13 06:32:31;;;;;;;1.25;0.50;;;;;;;7.85;48.21;94576.94;5017614;28;20582;-73
2021/03/13 06:35:21;;;;;;;1.25;0.40;;;;;;;7.94;47.67;94588.38;5029756;28;20045;-74
2021/03/13 06:37:48;;;;;;;1.52;0.47;;;;;;;7.96;48.51;94580.13;5030627;28;20037;-75
2021/03/13 06:40:28;;;;;;;2.05;0.40;;;;;;;7.88;48.22;94588.78;5032449;28;20018;-74
2021/03/13 06:42:54;;;;;;;2.50;0.50;;;;;;;8.24;47.54;94599.31;5030402;28;20052;-75
2021/03/13 06:45:20;;;;;;;1.15;0.43;;;;;;;8.31;47.43;94594.41;5030469;28;20041;-73
2021/03/13 06:47:46;;;;;;;1.08;0.40;;;;;;;8.48;46.86;94591.88;5028563;28;20381;-75
2021/03/13 06:50:15;;;;;;;1.17;0.43;;;;;;;8.04;47.93;94587.38;5029462;28;20376;-74
2021/03/13 06:52:47;;;;;;;2.03;0.40;;;;;;;7.71;48.59;94595.50;5029817;28;20108;-74
2021/03/13 06:55:20;;;;;;;1.33;0.70;;;;;;;7.88;48.90;94583.47;5030867;28;20024;-75
2021/03/13 06:57:49;;;;;;;2.17;0.47;;;;;;;7.88;48.14;94583.47;5028548;28;20069;-75
2021/03/13 07:00:27;;;;;;;5.45;0.65;;;;;;;8.20;47.59;94596.50;5030233;28;20576;-74
2021/03/13 07:03:16;;;;;;;2.08;0.70;;;;;;;7.84;48.16;94588.59;5028420;28;20041;-73
2021/03/13 07:05:43;;;;;;;0.30;0.20;;;;;;;7.72;48.78;94602.34;5045392;28;20368;-73
2021/03/13 07:08:29;;;;;;;1.45;0.60;;;;;;;7.90;47.86;94587.41;5029993;28;20048;-73
2021/03/13 07:11:04;;;;;;;1.88;0.52;;;;;;;8.13;47.74;94605.94;5030099;28;20064;-74
2021/03/13 07:13:41;;;;;;;1.85;0.47;;;;;;;8.17;47.78;94604.25;5028503;28;20026;-75
2021/03/13 07:16:38;;;;;;;1.48;0.60;;;;;;;8.26;47.73;94605.91;5031774;28;20033;-74
2021/03/13 07:19:06;;;;;;;1.10;0.45;;;;;;;8.41;47.36;94604.78;5029704;28;20049;-75
2021/03/13 07:21:33;;;;;;;0.65;0.60;;;;;;;8.34;47.17;94589.28;5028072;28;20168;-73
2021/03/13 07:24:01;;;;;;;1.75;0.50;;;;;;;8.80;46.25;94603.25;5028181;28;20044;-74
2021/03/13 07:26:31;;;;;;;1.33;0.60;;;;;;;8.28;46.70;94587.81;5028388;28;20119;-73
2021/03/13 07:28:58;;;;;;;1.13;0.45;;;;;;;8.93;45.64;94594.44;5029031;28;20045;-74
2021/03/13 07:31:26;;;;;;;1.88;0.40;;;;;;;9.03;45.43;94602.09;5029322;28;20224;-73
2021/03/13 07:33:55;;;;;;;1.27;0.57;;;;;;;9.27;44.86;94596.41;5030116;28;20009;-75
2021/03/13 07:36:23;;;;;;;2.13;0.70;;;;;;;9.30;45.37;94600.31;5029428;28;20036;-75
2021/03/13 07:38:50;;;;;;;1.67;0.57;;;;;;;10.02;43.94;94599.00;5029049;28;20029;-74
2021/03/13 07:41:17;;;;;;;1.35;0.63;;;;;;;10.31;42.96;94575.25;5028927;28;20040;-74
2021/03/13 07:43:44;;;;;;;1.50;0.43;;;;;;;10.63;41.65;94575.81;5029381;28;20033;-75
2021/03/13 07:46:11;;;;;;;2.50;0.30;;;;;;;10.16;42.52;94578.38;5031321;28;20018;-76
2021/03/13 07:48:37;;;;;;;1.80;0.60;;;;;;;9.82;43.60;94582.59;5029064;28;20503;-76
2021/03/13 07:51:07;;;;;;;1.42;0.45;;;;;;;9.99;42.47;94570.41;5029174;28;20061;-76
2021/03/13 07:53:36;;;;;;;1.55;0.50;;;;;;;10.60;41.98;94571.91;5028818;28;20036;-75
2021/03/13 07:56:05;;;;;;;2.20;0.60;;;;;;;10.82;41.46;94573.56;5029110;28;20030;-75
2021/03/13 07:58:31;;;;;;;1.90;0.40;;;;;;;9.92;42.78;94562.13;5028668;28;20476;-73
2021/03/13 08:00:59;;;;;;;1.40;0.50;;;;;;;9.53;43.33;94583.19;5030673;28;20032;-75
2021/03/13 08:03:28;;;;;;;0.63;0.43;;;;;;;9.62;43.27;94580.53;5027924;28;20116;-80
2021/03/13 08:05:55;;;;;;;1.65;0.40;;;;;;;10.15;42.36;94584.78;5030434;28;20348;-81
2021/03/13 08:08:52;;;;;;;2.05;0.55;;;;;;;9.44;44.35;94557.72;5030558;28;20045;-81
2021/03/13 08:11:20;;;;;;;1.02;0.40;;;;;;;9.74;43.47;94572.75;5030422;28;20077;-79
2021/03/13 08:13:51;;;;;;;0.98;0.40;;;;;;;9.45;43.65;94575.22;5029959;28;20034;-78
2021/03/13 08:16:29;;;;;;;1.75;0.32;;;;;;;9.44;42.60;94563.03;5032000;28;20365;-75
2021/03/13 08:18:57;;;;;;;1.50;0.40;;;;;;;9.56;43.59;94571.94;5029895;28;20079;-68
2021/03/13 08:21:22;;;;;;;1.17;0.57;;;;;;;9.72;43.24;94571.50;5044206;28;20563;-70
2021/03/13 08:23:57;;;;;;;2.95;0.60;;;;;;;10.36;42.49;94561.78;5029497;28;20157;-75
2021/03/13 08:26:33;;;;;;;4.97;0.63;;;;;;;10.00;42.36;94571.97;5030375;28;20029;-76
2021/03/13 08:28:59;;;;;;;0.88;0.57;;;;;;;10.83;41.72;94529.88;5029902;28;20034;-74
2021/03/13 08:31:24;;;;;;;1.08;0.63;;;;;;;10.59;40.85;94559.69;5030530;28;20079;-84
2021/03/13 08:33:52;;;;;;;1.58;0.30;;;;;;;10.28;41.78;94559.13;5031434;28;20530;-81
2021/03/13 08:36:23;;;;;;;2.10;0.50;;;;;;;9.78;42.94;94549.78;5029802;28;20046;-82
2021/03/13 08:39:01;;;;;;;1.00;0.40;;;;;;;10.10;42.69;94551.19;5029911;28;20037;-79
2021/03/13 08:41:57;;;;;;;2.25;0.60;;;;;;;10.81;40.92;94542.72;5030818;28;20539;-83
2021/03/13 08:44:25;;;;;;;1.63;0.55;;;;;;;11.52;40.55;94538.59;5017937;28;20053;-79
2021/03/13 08:46:56;;;;;;;1.17;0.40;;;;;;;11.75;39.70;94526.50;5030187;28;20038;-80
2021/03/13 08:49:24;;;;;;;1.83;0.83;;;;;;;12.36;38.88;94532.09;5033130;28;20030;-80
2021/03/13 08:52:18;;;;;;;1.73;0.50;;;;;;;11.42;39.37;94527.22;5030472;28;20273;-81
2021/03/13 08:54:45;;;;;;;2.40;0.60;;;;;;;12.23;39.34;94517.97;5028861;28;20034;-82
2021/03/13 08:57:14;;;;;;;0.73;0.50;;;;;;;12.43;37.84;94518.22;5030680;28;20096;-83
2021/03/13 08:59:41;;;;;;;0.85;0.30;;;;;;;11.26;40.05;94478.31;5030983;28;20065;-82
2021/03/13 09:02:17;;;;;;;1.38;0.63;;;;;;;12.22;38.01;94500.38;5024149;28;20045;-80
2021/03/13 09:04:50;;;;;;;1.60;0.60;;;;;;;12.27;37.69;94491.41;5010586;28;20042;-81
2021/03/13 09:07:18;;;;;;;5.00;0.70;;;;;;;12.09;38.19;94490.03;5013050;28;20036;-81
2021/03/13 09:09:43;;;;;;;0.95;0.50;;;;;;;11.93;37.46;94468.56;5010635;28;20073;-84
2021/03/13 09:12:12;;;;;;;0.88;0.40;;;;;;;11.65;38.84;94473.63;5011612;28;20088;-82
2021/03/13 09:14:40;;;;;;;2.67;0.75;;;;;;;12.14;37.61;94428.50;5014589;28;20492;-79
2021/03/13 09:17:13;;;;;;;3.15;0.60;;;;;;;10.87;39.29;94451.00;5014281;28;20038;-81
2021/03/13 09:19:41;;;;;;;0.75;0.70;;;;;;;11.07;39.48;94446.81;5014370;28;20034;-82
2021/03/13 09:22:17;;;;;;;4.00;0.70;;;;;;;11.90;37.84;94435.34;5015898;28;20025;-83
2021/03/13 09:24:44;;;;;;;1.25;0.75;;;;;;;12.03;37.08;94441.50;5014317;28;20053;-81
2021/03/13 09:27:09;;;;;;;1.88;0.47;;;;;;;11.09;39.06;94433.16;5013302;28;20085;-72
2021/03/13 09:29:40;;;;;;;0.40;0.40;;;;;;;11.22;38.26;94424.16;5037336;28;20176;-79
2021/03/13 09:32:07;;;;;;;0.50;0.35;;;;;;;11.34;38.66;94424.22;5032932;28;20033;-78
2021/03/13 09:34:38;;;;;;;2.65;0.40;;;;;;;10.53;39.43;94412.06;5031854;28;20033;-79
2021/03/13 09:37:16;;;;;;;1.20;0.50;;;;;;;11.90;37.36;94422.00;5034653;28;20022;-76
2021/03/13 09:39:44;;;;;;;1.50;0.47;;;;;;;11.66;36.96;94388.03;5017333;28;20081;-82
2021/03/13 09:42:15;;;;;;;4.05;0.47;;;;;;;11.96;36.81;94410.03;5022497;28;20142;-69
2021/03/13 09:44:44;;;;;;;1.75;0.60;;;;;;;12.27;36.63;94413.31;5021234;28;20141;-73
2021/03/13 09:47:30;;;;;;;2.45;0.55;;;;;;;12.09;35.46;94415.41;5014986;28;20121;-77
2021/03/13 09:49:57;;;;;;;1.77;0.50;;;;;;;11.30;36.12;94402.00;5012211;28;20034;-74
2021/03/13 09:52:31;;;;;;;0.68;0.50;;;;;;;11.15;36.33;94411.34;5011093;28;20029;-64
2021/03/13 09:55:05;;;;;;;1.10;0.45;;;;;;;11.91;35.39;94388.13;5015283;28;20050;-81
2021/03/13 09:57:32;;;;;;;1.60;0.60;;;;;;;12.07;35.27;94391.72;5012619;28;20512;-72
2021/03/13 09:59:58;;;;;;;6.30;1.33;;;;;;;11.37;35.31;94390.84;5011525;28;20034;-69
2021/03/13 10:02:24;;;;;;;1.88;0.50;;;;;;;11.24;36.75;94382.00;5012162;28;20042;-78
2021/03/13 10:04:51;;;;;;;0.70;0.40;;;;;;;11.65;35.37;94375.06;5012432;28;20503;-76
2021/03/13 10:07:17;;;;;;;1.20;0.43;;;;;;;11.23;36.96;94388.44;5014517;28;20037;-70
2021/03/13 10:10:00;;;;;;;0.93;0.32;;;;;;;11.14;36.85;94396.47;5013374;28;20038;-79
2021/03/13 10:12:35;;;;;;;1.92;0.55;;;;;;;10.79;38.20;94376.53;5011309;28;20404;-73
2021/03/13 10:15:37;;;;;;;4.47;0.50;;;;;;;11.81;36.78;94383.97;5011096;28;20046;-73
2021/03/13 10:18:15;;;;;;;0.80;0.65;;;;;;;11.38;36.94;94363.09;4990517;28;20471;-81
2021/03/13 10:20:48;;;;;;;2.50;0.38;;;;;;;11.45;36.38;94379.31;5013383;28;20204;-83
2021/03/13 10:23:15;;;;;;;1.50;0.70;;;;;;;11.61;36.33;94379.47;5015543;28;20042;-83
2021/03/13 10:26:00;;;;;;;1.15;0.60;;;;;;;11.33;36.39;94371.28;5015142;28;20032;-76
2021/03/13 10:28:31;;;;;;;0.80;0.63;;;;;;;11.26;37.31;94355.06;5014513;28;20033;-80
2021/03/13 10:31:14;;;;;;;3.85;0.50;;;;;;;10.79;37.71;94371.22;5015724;28;20477;-80
2021/03/13 10:33:41;;;;;;;4.57;0.63;;;;;;;11.02;37.18;94371.69;5013040;28;20042;-79
2021/03/13 10:36:08;;;;;;;1.38;0.40;;;;;;;11.42;37.47;94359.47;5013237;28;20045;-80
2021/03/13 10:38:41;;;;;;;0.63;0.50;;;;;;;10.96;38.01;94344.50;5010607;28;20029;-78
2021/03/13 10:41:15;;;;;;;1.23;0.50;;;;;;;11.70;37.43;94364.97;5012811;28;20038;-81
2021/03/13 10:43:45;;;;;;;1.15;0.65;;;;;;;12.07;36.14;94374.94;5012877;28;20034;-76
2021/03/13 10:46:18;;;;;;;2.72;0.50;;;;;;;11.39;36.62;94370.75;5014824;28;20029;-73
2021/03/13 10:48:44;;;;;;;1.50;0.50;;;;;;;12.06;35.88;94368.84;5012848;28;20045;-78
2021/03/13 10:51:29;;;;;;;2.08;0.60;;;;;;;12.20;36.03;94363.19;5012185;28;20037;-78
2021/03/13 10:53:57;;;;;;;2.95;0.80;;;;;;;12.28;35.97;94375.63;5014631;28;20049;-76
2021/03/13 10:56:23;;;;;;;0.70;0.38;;;;;;;11.53;36.88;94353.72;5011997;28;20030;-72
2021/03/13 10:58:53;;;;;;;1.48;0.60;;;;;;;12.49;35.99;94343.53;5012364;28;20518;-78
2021/03/13 11:01:20;;;;;;;1.25;0.50;;;;;;;11.16;38.33;94350.94;5013494;28;20030;-74
2021/03/13 11:03:49;;;;;;;2.90;0.60;;;;;;;12.14;36.10;94337.88;5014083;28;20046;-82
2021/03/13 11:06:31;;;;;;;1.50;0.60;;;;;;;12.53;35.62;94330.28;5014935;28;20096;-82
2021/03/13 11:08:59;;;;;;;;;;;;;;;12.60;36.07;94354.53;5013500;28;20070;-81
2021/03/13 11:11:26;;;;;;;1.63;0.60;;;;;;;11.43;37.58;94366.34;5011679;28;19923;-79
2021/03/13 11:13:52;;;;;;;0.70;0.43;;;;;;;11.60;36.88;94341.41;5010389;28;20398;-78
2021/03/13 11:16:19;;;;;;;1.00;0.50;;;;;;;11.66;36.85;94323.34;5013400;28;20026;-84
2021/03/13 11:18:44;;;;;;;1.60;0.60;;;;;;;12.00;37.49;94324.09;5011664;28;20069;-76
2021/03/13 11:21:10;;;;;;;2.17;0.70;;;;;;;12.16;36.68;94269.00;5011023;28;20050;-74
2021/03/13 11:23:35;;;;;;;1.80;1.05;;;;;;;12.60;36.45;94306.50;5010835;28;20512;-76
2021/03/13 11:26:01;;;;;;;1.98;0.60;;;;;;;12.10;36.44;94294.31;5010956;28;20026;-72
2021/03/13 11:28:26;;;;;;;3.25;0.95;;;;;;;13.00;34.97;94288.59;5011118;28;20025;-81
2021/03/13 11:30:52;;;;;;;2.47;0.60;;;;;;;12.55;35.10;94272.06;5012167;28;20033;-74
2021/03/13 11:33:18;;;;;;;1.42;0.60;;;;;;;12.78;34.63;94259.75;5008750;28;20042;-72
2021/03/13 11:35:43;;;;;;;1.98;0.80;;;;;;;12.45;34.94;94262.63;5012005;28;20034;-87
2021/03/13 11:38:09;;;;;;;2.58;0.60;;;;;;;12.85;33.97;94256.53;5013019;28;20057;-84
2021/03/13 11:40:35;;;;;;;1.20;0.80;;;;;;;13.34;33.43;94242.97;5013076;28;20530;-84
2021/03/13 11:43:00;;;;;;;3.58;0.90;;;;;;;13.69;32.06;94249.19;5014499;28;20033;-85
2021/03/13 11:45:28;;;;;;;1.05;0.70;;;;;;;13.31;32.51;94238.31;5011587;28;20507;-83
2021/03/13 11:47:55;;;;;;;1.00;0.70;;;;;;;13.21;32.09;94224.34;5012248;28;20047;-84
2021/03/13 11:50:23;;;;;;;1.65;0.32;;;;;;;12.76;32.02;94237.97;5012022;28;20034;-84